createdAt,value
2019-02-12T00:00:59.427Z,3.60
2019-02-12T00:03:27.214Z,3.60
2019-02-12T00:05:54.912Z,3.60
2019-02-12T00:08:23.516Z,3.70
2019-02-12T00:10:51.225Z,3.70
2019-02-12T00:13:18.991Z,3.70
2019-02-12T00:15:46.612Z,3.70
2019-02-12T00:18:14.227Z,3.70
2019-02-12T00:20:41.843Z,3.70
2019-02-12T00:23:09.582Z,3.70
2019-02-12T00:25:37.253Z,3.70
2019-02-12T00:28:05.069Z,3.70
2019-02-12T00:30:32.760Z,3.70
2019-02-12T00:33:00.429Z,3.70
2019-02-12T00:35:28.085Z,3.80
2019-02-12T00:37:55.803Z,3.80
2019-02-12T00:40:23.525Z,3.80
2019-02-12T00:42:51.268Z,3.80
2019-02-12T00:45:18.959Z,3.80
2019-02-12T00:47:46.745Z,3.80
2019-02-12T00:50:14.486Z,3.90
2019-02-12T00:52:42.163Z,3.90
2019-02-12T00:55:09.774Z,3.80
2019-02-12T00:57:37.454Z,3.80
2019-02-12T01:00:06.979Z,3.70
2019-02-12T01:02:34.769Z,3.70
2019-02-12T01:05:04.451Z,3.70
2019-02-12T01:07:32.237Z,3.70
2019-02-12T01:09:59.858Z,3.70
2019-02-12T01:12:27.475Z,3.60
2019-02-12T01:14:55.211Z,3.60
2019-02-12T01:17:22.990Z,3.60
2019-02-12T01:19:50.615Z,3.50
2019-02-12T01:22:18.200Z,3.50
2019-02-12T01:24:45.910Z,3.50
2019-02-12T01:27:13.571Z,3.50
2019-02-12T01:29:41.286Z,3.50
2019-02-12T01:32:08.977Z,3.50
2019-02-12T01:34:36.677Z,3.60
2019-02-12T01:37:04.300Z,3.60
2019-02-12T01:39:31.981Z,3.60
2019-02-12T01:41:59.626Z,3.60
2019-02-12T01:44:27.330Z,3.60
2019-02-12T01:46:55.045Z,3.70
2019-02-12T01:49:22.785Z,3.70
2019-02-12T01:51:50.485Z,3.70
2019-02-12T01:54:18.097Z,3.70
2019-02-12T01:56:45.802Z,3.70
2019-02-12T01:59:13.496Z,3.60
2019-02-12T02:01:41.220Z,3.50
2019-02-12T02:04:08.807Z,3.50
2019-02-12T02:06:36.528Z,3.40
2019-02-12T02:09:05.457Z,3.40
2019-02-12T02:11:33.531Z,3.30
2019-02-12T02:14:01.235Z,3.30
2019-02-12T02:16:29.047Z,3.30
2019-02-12T02:18:56.639Z,3.30
2019-02-12T02:21:24.345Z,3.30
2019-02-12T02:23:52.109Z,3.30
2019-02-12T02:26:19.787Z,3.30
2019-02-12T02:28:47.532Z,3.30
2019-02-12T02:31:15.201Z,3.30
2019-02-12T02:33:42.810Z,3.30
2019-02-12T02:36:10.366Z,3.30
2019-02-12T02:38:37.826Z,3.20
2019-02-12T02:41:05.401Z,3.20
2019-02-12T02:43:32.946Z,3.20
2019-02-12T02:46:00.532Z,3.10
2019-02-12T02:48:28.049Z,3.10
2019-02-12T02:50:55.526Z,3.10
2019-02-12T02:53:22.997Z,3.10
2019-02-12T02:55:50.631Z,3.10
2019-02-12T02:58:18.198Z,3.00
2019-02-12T03:00:45.721Z,3.00
2019-02-12T03:03:13.203Z,3.00
2019-02-12T03:05:40.794Z,3.00
2019-02-12T03:08:08.370Z,3.00
2019-02-12T03:10:35.838Z,3.00
2019-02-12T03:13:03.361Z,2.90
2019-02-12T03:15:30.914Z,3.00
2019-02-12T03:17:58.389Z,2.90
2019-02-12T03:20:26.009Z,3.00
2019-02-12T03:22:53.562Z,3.00
2019-02-12T03:25:21.191Z,3.00
2019-02-12T03:27:48.621Z,3.00
2019-02-12T03:30:16.212Z,3.00
2019-02-12T03:32:43.827Z,3.10
2019-02-12T03:35:11.398Z,3.10
2019-02-12T03:37:38.837Z,3.10
2019-02-12T03:40:07.441Z,3.10
2019-02-12T03:42:34.898Z,3.20
2019-02-12T03:45:03.743Z,3.20
2019-02-12T03:47:31.144Z,3.20
2019-02-12T03:49:58.638Z,3.30
2019-02-12T03:52:26.112Z,3.30
2019-02-12T03:54:53.632Z,3.30
2019-02-12T03:57:21.168Z,3.30
2019-02-12T03:59:49.337Z,3.30
2019-02-12T04:02:17.166Z,3.30
2019-02-12T04:04:44.767Z,3.20
2019-02-12T04:07:12.293Z,3.20
2019-02-12T04:09:39.725Z,3.20
2019-02-12T04:12:07.287Z,3.10
2019-02-12T04:14:34.796Z,3.10
2019-02-12T04:17:02.427Z,3.10
2019-02-12T04:19:29.840Z,3.00
2019-02-12T04:21:57.421Z,3.00
2019-02-12T04:24:25.045Z,3.00
2019-02-12T04:26:52.606Z,3.00
2019-02-12T04:29:20.118Z,3.10
2019-02-12T04:31:47.765Z,3.00
2019-02-12T04:34:15.292Z,3.00
2019-02-12T04:36:42.920Z,3.00
2019-02-12T04:39:10.393Z,3.00
2019-02-12T04:41:37.957Z,3.00
2019-02-12T04:44:05.403Z,3.10
2019-02-12T04:46:32.894Z,3.10
2019-02-12T04:49:00.548Z,3.10
2019-02-12T04:51:28.023Z,3.10
2019-02-12T04:53:55.585Z,3.10
2019-02-12T04:56:23.067Z,3.20
2019-02-12T04:58:50.598Z,3.20
2019-02-12T05:01:18.085Z,3.20
2019-02-12T05:03:45.835Z,3.30
2019-02-12T05:06:13.357Z,3.30
2019-02-12T05:09:25.165Z,3.30
2019-02-12T05:11:55.119Z,3.40
2019-02-12T05:14:22.614Z,3.40
2019-02-12T05:16:51.146Z,3.40
2019-02-12T05:19:18.713Z,3.40
2019-02-12T05:21:46.165Z,3.40
2019-02-12T05:24:13.821Z,3.40
2019-02-12T05:26:41.294Z,3.40
2019-02-12T05:29:08.739Z,3.50
2019-02-12T05:31:36.392Z,3.50
2019-02-12T05:34:04.059Z,3.50
2019-02-12T05:36:31.707Z,3.50
2019-02-12T05:38:59.394Z,3.50
2019-02-12T05:41:26.968Z,3.60
2019-02-12T05:43:55.838Z,3.60
2019-02-12T05:46:24.423Z,3.60
2019-02-12T05:48:52.007Z,3.60
2019-02-12T05:51:26.630Z,3.70
2019-02-12T05:53:55.406Z,3.70
2019-02-12T05:56:23.267Z,3.70
2019-02-12T05:58:50.930Z,3.60
2019-02-12T06:01:18.961Z,3.70
2019-02-12T06:03:46.481Z,3.70
2019-02-12T06:06:13.917Z,3.70
2019-02-12T06:08:47.422Z,3.60
2019-02-12T06:11:15.189Z,3.60
2019-02-12T06:13:42.756Z,3.70
2019-02-12T06:16:10.429Z,3.70
2019-02-12T06:18:38.091Z,3.70
2019-02-12T06:21:05.670Z,3.70
2019-02-12T06:23:33.125Z,3.70
2019-02-12T06:26:00.817Z,3.70
2019-02-12T06:28:28.388Z,3.80
2019-02-12T06:30:55.915Z,3.70
2019-02-12T06:33:23.551Z,3.70
2019-02-12T06:35:51.275Z,3.70
2019-02-12T06:38:19.438Z,3.70
2019-02-12T06:40:48.246Z,3.60
2019-02-12T06:43:15.889Z,3.60
2019-02-12T06:45:43.391Z,3.50
2019-02-12T06:48:10.947Z,3.50
2019-02-12T06:50:38.578Z,3.50
2019-02-12T06:53:12.391Z,3.50
2019-02-12T06:55:35.525Z,3.50
2019-02-12T06:58:03.614Z,3.50
2019-02-12T07:00:31.101Z,3.50
2019-02-12T07:03:12.602Z,3.50
2019-02-12T07:05:46.703Z,3.50
2019-02-12T07:08:53.583Z,3.50
2019-02-12T07:12:33.850Z,3.50
2019-02-12T07:15:15.021Z,3.50
2019-02-12T07:18:12.458Z,3.50
2019-02-12T07:21:07.385Z,3.50
2019-02-12T07:24:13.527Z,3.60
2019-02-12T07:27:09.133Z,3.70
2019-02-12T07:30:23.481Z,3.80
2019-02-12T07:33:47.993Z,3.80
2019-02-12T07:36:54.990Z,3.90
2019-02-12T07:40:01.172Z,4.00
2019-02-12T07:43:19.393Z,4.10
2019-02-12T07:46:19.694Z,4.10
2019-02-12T07:49:06.683Z,4.20
2019-02-12T07:52:05.556Z,4.30
2019-02-12T07:55:16.152Z,4.40
2019-02-12T07:58:15.789Z,4.50
2019-02-12T08:01:17.078Z,4.50
2019-02-12T08:04:29.365Z,4.60
2019-02-12T08:07:08.397Z,4.60
2019-02-12T08:10:25.099Z,4.70
2019-02-12T08:13:49.436Z,4.80
2019-02-12T08:17:04.673Z,4.80
2019-02-12T08:20:24.919Z,4.90
2019-02-12T08:23:16.416Z,4.90
2019-02-12T08:26:36.572Z,5.00
2019-02-12T08:29:51.851Z,5.00
2019-02-12T08:32:44.586Z,5.10
2019-02-12T08:35:56.737Z,5.20
2019-02-12T08:38:28.974Z,5.40
2019-02-12T08:41:37.662Z,5.60
2019-02-12T08:44:27.132Z,5.80
2019-02-12T08:47:37.071Z,6.10
2019-02-12T08:50:20.998Z,6.40
2019-02-12T08:53:10.760Z,6.80
2019-02-12T08:56:03.718Z,7.20
2019-02-12T08:59:11.322Z,7.60
2019-02-12T09:02:21.032Z,8.00
2019-02-12T09:05:15.039Z,8.70
2019-02-12T09:08:32.629Z,9.60
2019-02-12T09:11:35.103Z,10.30
2019-02-12T09:14:16.993Z,11.10
2019-02-12T09:17:16.090Z,11.70
2019-02-12T09:20:39.439Z,12.30
2019-02-12T09:23:43.268Z,13.10
2019-02-12T09:26:40.174Z,13.80
2019-02-12T09:29:21.330Z,14.00
2019-02-12T09:32:34.386Z,14.10
2019-02-12T09:35:42.428Z,14.00
2019-02-12T09:39:08.095Z,13.50
2019-02-12T09:42:01.729Z,12.90
2019-02-12T09:45:03.004Z,12.50
2019-02-12T09:48:25.681Z,12.30
2019-02-12T09:51:21.464Z,11.80
2019-02-12T09:54:08.684Z,11.50
2019-02-12T09:57:07.936Z,11.30
2019-02-12T09:59:47.661Z,11.10
2019-02-12T10:02:57.187Z,10.60
2019-02-12T10:05:47.026Z,10.10
2019-02-12T10:08:54.205Z,9.60
2019-02-12T10:11:53.523Z,9.20
2019-02-12T10:14:44.280Z,8.80
2019-02-12T10:17:33.902Z,8.50
2019-02-12T10:20:43.341Z,8.30
2019-02-12T10:23:30.741Z,8.20
2019-02-12T10:26:05.689Z,8.10
2019-02-12T10:29:23.089Z,8.00
2019-02-12T10:31:49.693Z,8.00
2019-02-12T10:34:17.505Z,8.00
2019-02-12T10:36:45.346Z,8.10
2019-02-12T10:39:14.262Z,8.00
2019-02-12T10:41:41.930Z,8.10
2019-02-12T10:44:09.645Z,8.10
2019-02-12T10:46:37.500Z,8.20
2019-02-12T10:49:05.310Z,8.20
2019-02-12T10:51:33.135Z,8.20
2019-02-12T10:54:00.927Z,8.30
2019-02-12T10:56:28.650Z,8.30
2019-02-12T10:58:56.339Z,8.30
2019-02-12T11:01:23.996Z,8.20
2019-02-12T11:03:52.833Z,8.20
2019-02-12T11:06:20.522Z,8.30
2019-02-12T11:08:48.214Z,8.30
2019-02-12T11:11:16.139Z,8.30
2019-02-12T11:13:43.857Z,8.30
2019-02-12T11:16:11.515Z,8.30
2019-02-12T11:18:39.374Z,8.40
2019-02-12T11:21:11.900Z,8.60
2019-02-12T11:23:36.988Z,8.80
2019-02-12T11:26:04.721Z,9.10
2019-02-12T11:28:32.443Z,9.40
2019-02-12T11:31:00.099Z,9.60
2019-02-12T11:33:27.807Z,9.80
2019-02-12T11:35:55.538Z,9.80
2019-02-12T11:38:23.325Z,9.80
2019-02-12T11:40:51.262Z,9.90
2019-02-12T11:43:19.063Z,10.10
2019-02-12T11:45:46.911Z,10.20
2019-02-12T11:48:14.761Z,10.20
2019-02-12T11:50:42.489Z,10.20
2019-02-12T11:53:10.170Z,10.10
2019-02-12T11:55:37.860Z,9.90
2019-02-12T11:58:05.578Z,9.70
2019-02-12T12:00:42.423Z,9.40
2019-02-12T12:03:10.551Z,9.20
2019-02-12T12:05:38.230Z,9.00
2019-02-12T12:08:05.985Z,8.90
2019-02-12T12:10:33.806Z,8.80
2019-02-12T12:13:01.515Z,8.80
2019-02-12T12:15:29.198Z,8.90
2019-02-12T12:17:56.910Z,9.00
2019-02-12T12:20:24.623Z,9.20
2019-02-12T12:22:52.457Z,9.30
2019-02-12T12:25:20.304Z,9.40
2019-02-12T12:27:48.004Z,9.40
2019-02-12T12:30:15.775Z,9.50
2019-02-12T12:32:43.559Z,9.60
2019-02-12T12:35:11.312Z,9.60
2019-02-12T12:37:40.090Z,9.70
2019-02-12T12:40:07.883Z,9.90
2019-02-12T12:42:35.698Z,10.00
2019-02-12T12:45:04.479Z,9.90
2019-02-12T12:47:32.389Z,9.80
2019-02-12T12:50:00.296Z,9.60
2019-02-12T12:52:29.056Z,9.50
2019-02-12T12:54:59.881Z,9.30
2019-02-12T12:57:26.310Z,9.20
2019-02-12T12:59:55.214Z,9.20
2019-02-12T13:02:23.016Z,9.10
2019-02-12T13:04:50.849Z,9.20
2019-02-12T13:07:18.774Z,9.30
2019-02-12T13:09:46.536Z,9.60
2019-02-12T13:12:14.306Z,10.00
2019-02-12T13:14:42.094Z,10.10
2019-02-12T13:17:11.516Z,10.10
2019-02-12T13:19:39.440Z,10.10
2019-02-12T13:22:07.113Z,9.90
2019-02-12T13:24:34.948Z,9.80
2019-02-12T13:27:02.999Z,9.70
2019-02-12T13:29:31.782Z,9.60
2019-02-12T13:31:59.531Z,9.50
2019-02-12T13:34:27.285Z,9.50
2019-02-12T13:36:55.120Z,9.60
2019-02-12T13:39:37.259Z,9.60
2019-02-12T13:42:04.987Z,9.50
2019-02-12T13:44:32.816Z,9.60
2019-02-12T13:47:00.663Z,9.60
2019-02-12T13:49:28.437Z,9.50
2019-02-12T13:51:56.208Z,9.50
2019-02-12T13:54:24.082Z,9.40
2019-02-12T13:56:51.827Z,9.30
2019-02-12T13:59:20.480Z,9.10
2019-02-12T14:01:48.227Z,9.00
2019-02-12T14:04:15.965Z,8.80
2019-02-12T14:06:43.819Z,8.70
2019-02-12T14:09:11.604Z,8.70
2019-02-12T14:11:39.459Z,8.70
2019-02-12T14:14:07.262Z,8.60
2019-02-12T14:16:35.156Z,8.50
2019-02-12T14:19:03.870Z,8.40
2019-02-12T14:21:31.753Z,8.40
2019-02-12T14:23:59.528Z,8.40
2019-02-12T14:26:27.261Z,8.50
2019-02-12T14:28:55.342Z,8.60
2019-02-12T14:31:23.190Z,8.60
2019-02-12T14:33:50.934Z,8.80
2019-02-12T14:36:18.693Z,8.90
2019-02-12T14:38:46.504Z,9.30
2019-02-12T14:41:14.300Z,9.70
2019-02-12T14:43:42.207Z,10.30
2019-02-12T14:46:12.266Z,11.30
2019-02-12T14:48:40.065Z,12.20
2019-02-12T14:51:07.949Z,12.60
2019-02-12T14:53:35.726Z,12.70
2019-02-12T14:56:10.978Z,12.50
2019-02-12T14:58:33.168Z,12.30
2019-02-12T15:01:01.163Z,12.00
2019-02-12T15:03:29.125Z,11.70
2019-02-12T15:05:57.062Z,11.40
2019-02-12T15:08:24.899Z,11.20
2019-02-12T15:10:53.839Z,11.00
2019-02-12T15:13:21.690Z,10.80
2019-02-12T15:15:49.446Z,10.50
2019-02-12T15:18:17.313Z,10.30
2019-02-12T15:20:45.443Z,10.20
2019-02-12T15:23:13.256Z,10.00
2019-02-12T15:25:42.198Z,9.90
2019-02-12T15:28:10.032Z,9.80
2019-02-12T15:30:37.944Z,9.80
2019-02-12T15:33:05.637Z,9.70
2019-02-12T15:35:33.324Z,9.60
2019-02-12T15:38:00.922Z,9.50
2019-02-12T15:40:28.812Z,9.40
2019-02-12T15:42:56.546Z,9.40
2019-02-12T15:45:24.206Z,9.30
2019-02-12T15:47:52.107Z,9.20
2019-02-12T15:50:19.948Z,9.10
2019-02-12T15:52:47.742Z,9.00
2019-02-12T15:55:15.510Z,8.80
2019-02-12T15:57:45.791Z,8.70
2019-02-12T16:00:15.665Z,8.50
2019-02-12T16:02:43.849Z,8.30
2019-02-12T16:05:12.449Z,8.20
2019-02-12T16:07:40.215Z,8.10
2019-02-12T16:10:10.544Z,8.00
2019-02-12T16:12:38.274Z,8.00
2019-02-12T16:15:08.482Z,7.90
2019-02-12T16:17:37.438Z,7.80
2019-02-12T16:20:10.139Z,7.70
2019-02-12T16:22:37.998Z,7.60
2019-02-12T16:25:06.109Z,7.50
2019-02-12T16:27:33.783Z,7.40
2019-02-12T16:30:01.637Z,7.30
2019-02-12T16:32:29.523Z,7.30
2019-02-12T16:34:57.284Z,7.20
2019-02-12T16:37:25.044Z,7.10
2019-02-12T16:39:52.764Z,7.10
2019-02-12T16:42:20.584Z,7.00
2019-02-12T16:44:48.353Z,6.90
2019-02-12T16:47:17.358Z,6.90
2019-02-12T16:49:45.109Z,6.80
2019-02-12T16:52:20.500Z,6.80
2019-02-12T16:54:42.514Z,6.70
2019-02-12T16:57:11.291Z,6.70
2019-02-12T16:59:40.103Z,6.70
2019-02-12T17:02:07.902Z,6.60
2019-02-12T17:04:35.778Z,6.60
2019-02-12T17:07:03.562Z,6.60
2019-02-12T17:09:31.402Z,6.50
2019-02-12T17:11:59.208Z,6.50
2019-02-12T17:14:27.626Z,6.50
2019-02-12T17:16:55.415Z,6.50
2019-02-12T17:19:23.127Z,6.50
2019-02-12T17:21:50.834Z,6.40
2019-02-12T17:24:18.622Z,6.40
2019-02-12T17:26:46.335Z,6.30
2019-02-12T17:29:14.448Z,6.30
2019-02-12T17:31:42.266Z,6.20
2019-02-12T17:34:10.130Z,6.20
2019-02-12T17:36:37.859Z,6.10
2019-02-12T17:39:05.882Z,6.00
2019-02-12T17:41:35.542Z,6.00
2019-02-12T17:44:03.385Z,5.90
2019-02-12T17:46:31.219Z,5.80
2019-02-12T17:48:59.201Z,5.80
2019-02-12T17:51:27.647Z,5.70
2019-02-12T17:53:55.577Z,5.70
2019-02-12T17:56:24.972Z,5.70
2019-02-12T17:58:52.939Z,5.70
2019-02-12T18:01:20.705Z,5.70
2019-02-12T18:03:48.907Z,5.60
2019-02-12T18:06:16.639Z,5.60
2019-02-12T18:08:44.347Z,5.60
2019-02-12T18:11:12.319Z,5.60
2019-02-12T18:13:40.102Z,5.50
2019-02-12T18:16:08.427Z,5.50
2019-02-12T18:18:36.268Z,5.50
2019-02-12T18:21:05.224Z,5.40
2019-02-12T18:23:33.156Z,5.40
2019-02-12T18:26:01.127Z,5.40
2019-02-12T18:28:28.931Z,5.50
2019-02-12T18:30:56.811Z,5.50
2019-02-12T18:33:24.703Z,5.50
2019-02-12T18:35:52.807Z,5.50
2019-02-12T18:38:20.750Z,5.50
2019-02-12T18:40:48.464Z,5.60
2019-02-12T18:43:16.216Z,5.50
2019-02-12T18:45:43.984Z,5.50
2019-02-12T18:48:11.879Z,5.50
2019-02-12T18:50:39.722Z,5.40
2019-02-12T18:53:07.464Z,5.40
2019-02-12T18:55:35.489Z,5.40
2019-02-12T18:58:03.448Z,5.40
2019-02-12T19:00:33.030Z,5.30
2019-02-12T19:03:00.854Z,5.30
2019-02-12T19:05:28.805Z,5.30
2019-02-12T19:07:56.794Z,5.20
2019-02-12T19:10:24.708Z,5.20
2019-02-12T19:12:52.550Z,5.20
2019-02-12T19:15:20.432Z,5.20
2019-02-12T19:17:55.585Z,5.20
2019-02-12T19:20:23.547Z,5.20
2019-02-12T19:22:51.343Z,5.20
2019-02-12T19:25:19.307Z,5.10
2019-02-12T19:27:47.153Z,5.10
2019-02-12T19:30:16.235Z,5.10
2019-02-12T19:32:44.282Z,5.10
2019-02-12T19:35:12.140Z,5.10
2019-02-12T19:37:39.891Z,5.10
2019-02-12T19:40:07.840Z,5.10
2019-02-12T19:42:35.606Z,5.10
2019-02-12T19:45:04.404Z,5.00
2019-02-12T19:47:32.357Z,5.00
2019-02-12T19:50:00.097Z,5.00
2019-02-12T19:52:27.888Z,5.00
2019-02-12T19:54:55.815Z,5.10
2019-02-12T19:57:23.533Z,5.10
2019-02-12T19:59:51.360Z,5.10
2019-02-12T20:02:19.157Z,5.10
2019-02-12T20:04:47.231Z,5.10
2019-02-12T20:07:15.032Z,5.10
2019-02-12T20:09:42.687Z,5.10
2019-02-12T20:12:10.576Z,5.10
2019-02-12T20:14:38.443Z,5.20
2019-02-12T20:17:06.228Z,5.10
2019-02-12T20:19:34.347Z,5.10
2019-02-12T20:22:02.572Z,5.00
2019-02-12T20:24:30.349Z,5.00
2019-02-12T20:27:06.198Z,5.00
2019-02-12T20:29:27.875Z,5.00
2019-02-12T20:31:55.869Z,5.00
2019-02-12T20:34:23.619Z,5.00
2019-02-12T20:36:51.481Z,5.00
2019-02-12T20:39:20.816Z,5.00
2019-02-12T20:41:48.843Z,5.00
2019-02-12T20:44:16.540Z,5.00
2019-02-12T20:46:45.295Z,5.00
2019-02-12T20:49:13.201Z,4.90
2019-02-12T20:51:41.054Z,4.90
2019-02-12T20:54:08.691Z,4.90
2019-02-12T20:56:36.712Z,4.90
2019-02-12T20:59:04.547Z,4.80
2019-02-12T21:01:34.443Z,4.80
2019-02-12T21:04:02.654Z,4.80
2019-02-12T21:06:30.605Z,4.90
2019-02-12T21:08:58.552Z,4.90
2019-02-12T21:11:26.449Z,4.90
2019-02-12T21:13:54.539Z,4.80
2019-02-12T21:16:22.502Z,4.70
2019-02-12T21:18:50.308Z,4.60
2019-02-12T21:21:18.772Z,4.60
2019-02-12T21:23:46.642Z,4.60
2019-02-12T21:26:14.412Z,4.60
2019-02-12T21:28:42.318Z,4.60
2019-02-12T21:31:11.321Z,4.60
2019-02-12T21:33:39.784Z,4.60
2019-02-12T21:36:08.878Z,4.60
2019-02-12T21:38:37.031Z,4.60
2019-02-12T21:41:06.079Z,4.70
2019-02-12T21:43:33.915Z,4.70
2019-02-12T21:46:01.662Z,4.70
2019-02-12T21:48:29.847Z,4.80
2019-02-12T21:50:57.930Z,4.80
2019-02-12T21:53:25.857Z,4.80
2019-02-12T21:55:53.750Z,4.80
2019-02-12T21:58:22.347Z,4.70
2019-02-12T22:00:50.487Z,4.70
2019-02-12T22:03:18.664Z,4.70
2019-02-12T22:05:46.610Z,4.70
2019-02-12T22:08:14.730Z,4.70
2019-02-12T22:10:46.325Z,4.60
2019-02-12T22:13:12.541Z,4.60
2019-02-12T22:15:40.686Z,4.50
2019-02-12T22:18:08.984Z,4.50
2019-02-12T22:20:36.970Z,4.50
2019-02-12T22:23:05.039Z,4.50
2019-02-12T22:25:34.660Z,4.40
2019-02-12T22:28:02.581Z,4.40
2019-02-12T22:30:30.179Z,4.30
2019-02-12T22:32:57.764Z,4.30
2019-02-12T22:35:25.370Z,4.20
2019-02-12T22:37:52.952Z,4.20
2019-02-12T22:40:20.618Z,4.10
2019-02-12T22:42:48.195Z,4.10
2019-02-12T22:45:16.889Z,4.00
2019-02-12T22:47:44.685Z,3.90
2019-02-12T22:50:13.322Z,3.80
2019-02-12T22:52:41.236Z,3.70
2019-02-12T22:55:09.390Z,3.70
2019-02-12T22:57:37.096Z,3.60
2019-02-12T23:00:14.823Z,3.50
2019-02-12T23:02:44.328Z,3.50
2019-02-12T23:05:11.910Z,3.40
2019-02-12T23:07:39.697Z,3.30
2019-02-12T23:10:07.504Z,3.20
2019-02-12T23:12:35.331Z,3.10
2019-02-12T23:15:03.904Z,3.10
2019-02-12T23:17:31.875Z,3.00
2019-02-12T23:19:59.436Z,3.00
2019-02-12T23:22:26.918Z,2.90
2019-02-12T23:24:54.431Z,2.80
2019-02-12T23:27:21.921Z,2.80
2019-02-12T23:29:50.330Z,2.70
2019-02-12T23:32:17.841Z,2.70
2019-02-12T23:34:45.390Z,2.60
2019-02-12T23:37:12.866Z,2.50
2019-02-12T23:39:40.301Z,2.50
2019-02-12T23:42:07.762Z,2.40
2019-02-12T23:44:35.662Z,2.40
2019-02-12T23:47:03.215Z,2.30
2019-02-12T23:49:30.672Z,2.30
2019-02-12T23:51:58.174Z,2.20
2019-02-12T23:54:25.678Z,2.20
2019-02-12T23:56:53.178Z,2.10
2019-02-12T23:59:20.715Z,2.00
